Aplington, Iowa
Current Conditions -  °F | °C
As of 5:35 PM on Monday 20 Oct 2014 (Local Time) from KIFA Reporting Station
Clear Clear  
Wind Chill: 66°   Ceiling: Unl
Heat Index: 66°   Visibility: 10mi
Dew Point: 39°   Wind: 14mph
Humidity: 37%   Direction: 320°NW
Pressure: 30.01"   Gusts: NA
Location:  42.58°N, 92.88°W
Report Text: KIFA 202235Z AUTO 32012KT 10SM CLR 19/04 A3001 RMK AO2 T01900041
Loading
Personal Weather Stations






























Interactive Weather Map
Tropical Storm Tracking
New forecast layout! Learn more

10-Day Weather Forecast

Advertisements
Track Severe Weather on mobile